createdAt,value
2023-11-12T00:01:42.057Z,56.46
2023-11-12T00:04:13.133Z,56.36
2023-11-12T00:06:43.197Z,56.38
2023-11-12T00:09:13.926Z,56.63
2023-11-12T00:11:47.803Z,56.59
2023-11-12T00:14:18.882Z,56.64
2023-11-12T00:16:48.954Z,56.89
2023-11-12T00:19:19.805Z,56.73
2023-11-12T00:21:50.165Z,56.89
2023-11-12T00:24:20.784Z,57.05
2023-11-12T00:26:54.058Z,57.04
2023-11-12T00:29:24.936Z,57.15
2023-11-12T00:31:56.167Z,57.01
2023-11-12T00:34:27.407Z,57.08
2023-11-12T00:36:58.105Z,57.25
2023-11-12T00:39:28.495Z,57.40
2023-11-12T00:42:01.908Z,57.37
2023-11-12T00:44:32.470Z,57.45
2023-11-12T00:47:02.741Z,57.34
2023-11-12T00:49:33.221Z,57.55
2023-11-12T00:52:04.236Z,57.61
2023-11-12T00:54:35.346Z,57.60
2023-11-12T00:57:08.803Z,57.62
2023-11-12T00:59:39.501Z,57.36
2023-11-12T01:02:11.492Z,57.75
2023-11-12T01:04:41.823Z,57.52
2023-11-12T01:07:12.189Z,57.61
2023-11-12T01:09:42.662Z,57.77
2023-11-12T01:12:15.796Z,57.96
2023-11-12T01:14:46.237Z,57.85
2023-11-12T01:17:16.865Z,58.02
2023-11-12T01:19:47.603Z,58.08
2023-11-12T01:22:18.024Z,57.90
2023-11-12T01:24:48.706Z,58.04
2023-11-12T01:27:21.932Z,57.84
2023-11-12T01:29:52.485Z,58.28
2023-11-12T01:32:23.106Z,58.37
2023-11-12T01:34:53.458Z,58.29
2023-11-12T01:37:23.898Z,58.30
2023-11-12T01:39:54.234Z,58.43
2023-11-12T01:42:27.390Z,58.64
2023-11-12T01:44:57.795Z,58.52
2023-11-12T01:47:29.207Z,58.61
2023-11-12T01:50:00.047Z,58.50
2023-11-12T01:52:30.502Z,58.46
2023-11-12T01:55:01.445Z,58.45
2023-11-12T01:57:35.264Z,58.75
2023-11-12T02:00:12.766Z,58.81
2023-11-12T02:02:43.842Z,58.78
2023-11-12T02:05:14.393Z,58.90
2023-11-12T02:07:47.507Z,58.94
2023-11-12T02:10:18.872Z,58.83
2023-11-12T02:12:52.119Z,58.79
2023-11-12T02:15:22.616Z,58.88
2023-11-12T02:17:54.177Z,59.10
2023-11-12T02:20:24.548Z,58.86
2023-11-12T02:22:54.948Z,58.88
2023-11-12T02:25:28.311Z,58.94
2023-11-12T02:27:58.620Z,59.21
2023-11-12T02:30:28.965Z,59.19
2023-11-12T02:32:59.300Z,59.16
2023-11-12T02:35:30.977Z,59.16
2023-11-12T02:38:01.253Z,59.24
2023-11-12T02:40:34.404Z,59.33
2023-11-12T02:43:05.139Z,59.43
2023-11-12T02:45:35.411Z,59.44
2023-11-12T02:48:06.078Z,59.44
2023-11-12T02:50:37.611Z,59.27
2023-11-12T02:53:09.032Z,59.37
2023-11-12T02:55:42.303Z,59.66
2023-11-12T02:58:12.869Z,59.45
2023-11-12T03:00:43.243Z,59.48
2023-11-12T03:03:14.618Z,59.71
2023-11-12T03:05:45.406Z,59.48
2023-11-12T03:08:15.698Z,59.89
2023-11-12T03:10:48.800Z,59.96
2023-11-12T03:13:19.153Z,59.10
2023-11-12T03:15:49.812Z,59.55
2023-11-12T03:18:20.199Z,59.78
2023-11-12T03:20:50.626Z,59.65
2023-11-12T03:23:20.963Z,59.84
2023-11-12T03:25:54.357Z,59.73
2023-11-12T03:28:24.738Z,59.68
2023-11-12T03:30:55.288Z,59.70
2023-11-12T03:33:25.590Z,59.68
2023-11-12T03:35:55.905Z,59.86
2023-11-12T03:38:26.741Z,59.63
2023-11-12T03:41:00.511Z,59.85
2023-11-12T03:43:30.765Z,59.68
2023-11-12T03:46:00.999Z,59.98
2023-11-12T03:48:31.319Z,59.62
2023-11-12T03:51:01.601Z,59.89
2023-11-12T03:53:31.890Z,60.01
2023-11-12T03:56:05.259Z,59.89
2023-11-12T03:58:35.815Z,59.85
2023-11-12T04:01:06.108Z,59.88
2023-11-12T04:03:36.608Z,59.94
2023-11-12T04:06:07.678Z,59.74
2023-11-12T04:08:37.856Z,59.91
2023-11-12T04:11:11.033Z,59.66
2023-11-12T04:13:41.329Z,59.92
2023-11-12T04:16:11.624Z,59.65
2023-11-12T04:18:41.919Z,59.71
2023-11-12T04:21:12.264Z,59.78
2023-11-12T04:23:45.648Z,59.87
2023-11-12T04:26:19.866Z,59.95
2023-11-12T04:28:50.203Z,59.84
2023-11-12T04:31:20.682Z,59.70
2023-11-12T04:33:51.430Z,59.74
2023-11-12T04:36:21.681Z,59.87
2023-11-12T04:38:53.199Z,59.81
2023-11-12T04:41:26.090Z,59.90
2023-11-12T04:43:56.611Z,59.86
2023-11-12T04:46:26.881Z,60.03
2023-11-12T04:48:57.161Z,60.19
2023-11-12T04:51:28.275Z,59.90
2023-11-12T04:53:58.159Z,59.67
2023-11-12T04:56:31.049Z,59.94
2023-11-12T04:59:01.271Z,59.82
2023-11-12T05:01:31.966Z,60.01
2023-11-12T05:04:02.371Z,60.03
2023-11-12T05:06:32.655Z,60.10
2023-11-12T05:09:03.015Z,59.89
2023-11-12T05:11:35.915Z,59.89
2023-11-12T05:14:06.112Z,59.84
2023-11-12T05:16:36.340Z,60.06
2023-11-12T05:19:08.254Z,59.86
2023-11-12T05:21:38.580Z,59.95
2023-11-12T05:24:10.104Z,59.99
2023-11-12T05:26:43.493Z,59.99
2023-11-12T05:29:13.919Z,60.10
2023-11-12T05:31:44.152Z,59.90
2023-11-12T05:34:14.688Z,60.11
2023-11-12T05:36:44.981Z,60.03
2023-11-12T05:39:16.574Z,59.92
2023-11-12T05:41:49.455Z,54.57
2023-11-12T05:44:19.697Z,56.13
2023-11-12T05:46:50.080Z,56.58
2023-11-12T05:49:20.796Z,57.24
2023-11-12T05:51:51.133Z,57.73
2023-11-12T05:54:21.336Z,58.47
2023-11-12T05:56:54.552Z,58.92
2023-11-12T05:59:24.742Z,59.07
2023-11-12T06:01:55.152Z,59.22
2023-11-12T06:04:25.526Z,59.32
2023-11-12T06:06:55.943Z,59.50
2023-11-12T06:09:26.474Z,59.38
2023-11-12T06:11:59.370Z,59.45
2023-11-12T06:14:29.555Z,59.72
2023-11-12T06:17:00.545Z,59.75
2023-11-12T06:19:31.015Z,59.83
2023-11-12T06:22:01.705Z,59.98
2023-11-12T06:24:32.051Z,59.86
2023-11-12T06:27:05.095Z,60.04
2023-11-12T06:29:37.210Z,60.01
2023-11-12T06:32:08.489Z,60.00
2023-11-12T06:34:38.969Z,59.88
2023-11-12T06:37:09.284Z,60.17
2023-11-12T06:39:39.582Z,60.04
2023-11-12T06:42:12.809Z,60.03
2023-11-12T06:44:43.732Z,59.95
2023-11-12T06:47:14.016Z,60.04
2023-11-12T06:49:44.509Z,59.90
2023-11-12T06:52:16.116Z,59.87
2023-11-12T06:54:46.470Z,60.11
2023-11-12T06:57:19.387Z,59.76
2023-11-12T06:59:49.681Z,59.92
2023-11-12T07:02:19.896Z,60.01
2023-11-12T07:04:50.890Z,59.92
2023-11-12T07:07:22.424Z,59.89
2023-11-12T07:09:52.982Z,59.94
2023-11-12T07:12:25.935Z,60.05
2023-11-12T07:14:56.203Z,60.08
2023-11-12T07:17:26.486Z,59.72
2023-11-12T07:19:57.394Z,59.79
2023-11-12T07:22:29.755Z,59.86
2023-11-12T07:25:01.742Z,59.61
2023-11-12T07:27:35.042Z,59.73
2023-11-12T07:30:05.840Z,60.07
2023-11-12T07:32:39.390Z,59.71
2023-11-12T07:35:10.905Z,59.66
2023-11-12T07:37:42.480Z,59.96
2023-11-12T07:40:17.135Z,60.00
2023-11-12T07:42:50.218Z,59.93
2023-11-12T07:45:25.341Z,60.14
2023-11-12T07:47:58.438Z,60.20
2023-11-12T07:50:29.729Z,60.09
2023-11-12T07:53:00.091Z,60.35
2023-11-12T07:55:32.691Z,60.35
2023-11-12T07:58:05.820Z,60.20
2023-11-12T08:00:36.145Z,60.47
2023-11-12T08:03:07.098Z,60.30
2023-11-12T08:05:37.670Z,60.19
2023-11-12T08:08:09.432Z,60.09
2023-11-12T08:10:40.844Z,60.07
2023-11-12T08:13:17.752Z,60.17
2023-11-12T08:15:48.163Z,60.44
2023-11-12T08:18:18.926Z,60.53
2023-11-12T08:20:49.885Z,60.54
2023-11-12T08:23:20.606Z,60.38
2023-11-12T08:25:50.996Z,60.64
2023-11-12T08:28:25.856Z,60.58
2023-11-12T08:30:56.764Z,60.47
2023-11-12T08:33:27.229Z,60.12
2023-11-12T08:35:58.323Z,60.15
2023-11-12T08:38:29.040Z,60.27
2023-11-12T08:40:59.789Z,60.47
2023-11-12T08:43:32.746Z,60.47
2023-11-12T08:46:03.669Z,60.84
2023-11-12T08:48:36.229Z,60.59
2023-11-12T08:51:06.865Z,60.69
2023-11-12T08:53:37.369Z,60.76
2023-11-12T08:56:08.949Z,60.20
2023-11-12T08:58:42.429Z,60.13
2023-11-12T09:01:13.740Z,60.35
2023-11-12T09:03:44.309Z,60.37
2023-11-12T09:06:15.084Z,59.98
2023-11-12T09:08:45.495Z,60.47
2023-11-12T09:11:17.221Z,60.62
2023-11-12T09:13:50.368Z,60.88
2023-11-12T09:16:21.155Z,60.60
2023-11-12T09:18:51.986Z,60.69
2023-11-12T09:21:22.743Z,60.83
2023-11-12T09:23:53.196Z,61.00
2023-11-12T09:26:24.812Z,60.95
2023-11-12T09:28:58.146Z,61.27
2023-11-12T09:31:29.721Z,60.99
2023-11-12T09:34:00.200Z,60.96
2023-11-12T09:36:31.305Z,61.10
2023-11-12T09:39:01.649Z,60.75
2023-11-12T09:41:32.973Z,60.61
2023-11-12T09:44:07.293Z,59.87
2023-11-12T09:46:38.400Z,59.86
2023-11-12T09:49:08.710Z,60.00
2023-11-12T09:51:40.550Z,60.02
2023-11-12T09:54:12.722Z,60.26
2023-11-12T09:56:43.142Z,60.25
2023-11-12T09:59:16.352Z,60.39
2023-11-12T10:01:52.047Z,60.02
2023-11-12T10:04:23.203Z,60.20
2023-11-12T10:06:54.526Z,60.35
2023-11-12T10:09:31.393Z,60.29
2023-11-12T10:12:07.767Z,59.92
2023-11-12T10:14:42.376Z,59.85
2023-11-12T10:17:13.166Z,59.58
2023-11-12T10:19:43.472Z,58.99
2023-11-12T10:22:13.741Z,58.85
2023-11-12T10:24:49.944Z,58.79
2023-11-12T10:27:20.262Z,59.07
2023-11-12T10:29:53.465Z,59.12
2023-11-12T10:32:29.779Z,59.18
2023-11-12T10:35:00.129Z,58.78
2023-11-12T10:37:30.422Z,58.32
2023-11-12T10:40:09.968Z,58.21
2023-11-12T10:42:41.295Z,58.11
2023-11-12T10:45:17.581Z,57.94
2023-11-12T10:47:50.831Z,57.97
2023-11-12T10:50:21.423Z,58.04
2023-11-12T10:52:52.214Z,57.86
2023-11-12T10:55:24.652Z,57.74
2023-11-12T10:57:55.466Z,57.62
2023-11-12T11:00:30.524Z,57.79
2023-11-12T11:03:00.884Z,57.58
2023-11-12T11:05:32.057Z,57.51
2023-11-12T11:08:02.286Z,57.41
2023-11-12T11:10:32.663Z,57.58
2023-11-12T11:13:02.981Z,57.29
2023-11-12T11:15:54.091Z,57.23
2023-11-12T11:18:55.170Z,57.19
2023-11-12T11:21:25.568Z,57.14
2023-11-12T11:23:57.473Z,57.12
2023-11-12T11:26:36.151Z,56.96
2023-11-12T11:29:19.594Z,56.61
2023-11-12T11:32:19.375Z,56.56
2023-11-12T11:34:50.114Z,56.43
2023-11-12T11:37:21.121Z,56.47
2023-11-12T11:39:51.753Z,56.50
2023-11-12T11:42:23.639Z,56.60
2023-11-12T11:44:51.385Z,56.54
2023-11-12T11:47:27.894Z,56.76
2023-11-12T11:50:45.633Z,56.59
2023-11-12T11:53:18.288Z,56.71
2023-11-12T11:55:56.047Z,57.09
2023-11-12T11:58:26.999Z,55.88
2023-11-12T12:01:03.417Z,56.47
2023-11-12T12:03:37.446Z,56.74
2023-11-12T12:06:19.008Z,56.66
2023-11-12T12:08:53.793Z,56.26
2023-11-12T12:11:26.304Z,56.24
2023-11-12T12:14:00.491Z,56.02
2023-11-12T12:16:31.476Z,56.07
2023-11-12T12:19:05.086Z,56.26
2023-11-12T12:21:35.955Z,55.88
2023-11-12T12:24:07.528Z,55.81
2023-11-12T12:26:38.955Z,55.75
2023-11-12T12:29:16.198Z,55.91
2023-11-12T12:31:47.131Z,55.93
2023-11-12T12:34:20.910Z,55.77
2023-11-12T12:37:04.620Z,55.58
2023-11-12T12:39:56.812Z,55.54
2023-11-12T12:42:29.218Z,55.67
2023-11-12T12:45:00.641Z,55.64
2023-11-12T12:47:35.837Z,55.64
2023-11-12T12:50:27.557Z,55.52
2023-11-12T12:53:16.989Z,55.65
2023-11-12T12:55:47.925Z,55.53
2023-11-12T12:58:18.637Z,55.71
2023-11-12T13:00:49.417Z,55.80
2023-11-12T13:03:32.485Z,55.74
2023-11-12T13:06:09.547Z,55.77
2023-11-12T13:08:42.367Z,55.79
2023-11-12T13:11:12.738Z,56.01
2023-11-12T13:13:43.462Z,56.10
2023-11-12T13:16:13.899Z,55.90
2023-11-12T13:18:45.266Z,55.79
2023-11-12T13:21:20.133Z,55.92
2023-11-12T13:23:50.774Z,56.04
2023-11-12T13:26:22.940Z,56.14
2023-11-12T13:28:55.042Z,56.24
2023-11-12T13:31:26.629Z,56.05
2023-11-12T13:33:57.075Z,56.15
2023-11-12T13:36:30.253Z,56.11
2023-11-12T13:39:00.477Z,56.16
2023-11-12T13:41:31.397Z,56.07
2023-11-12T13:44:01.775Z,55.91
2023-11-12T13:46:33.309Z,55.90
2023-11-12T13:49:04.307Z,55.96
2023-11-12T13:51:37.608Z,55.82
2023-11-12T13:54:12.020Z,55.72
2023-11-12T13:56:43.176Z,55.88
2023-11-12T13:59:13.961Z,56.02
2023-11-12T14:01:47.030Z,55.92
2023-11-12T14:04:17.601Z,56.19
2023-11-12T14:06:52.266Z,56.28
2023-11-12T14:09:22.848Z,56.44
2023-11-12T14:11:53.546Z,56.60
2023-11-12T14:14:23.947Z,56.11
2023-11-12T14:16:57.051Z,54.88
2023-11-12T14:19:28.812Z,55.27
2023-11-12T14:22:01.675Z,54.50
2023-11-12T14:24:32.349Z,55.13
2023-11-12T14:27:03.780Z,55.48
2023-11-12T14:29:34.295Z,55.95
2023-11-12T14:32:06.043Z,55.91
2023-11-12T14:34:36.609Z,56.04
2023-11-12T14:37:10.134Z,56.11
2023-11-12T14:39:41.571Z,56.45
2023-11-12T14:42:12.233Z,56.42
2023-11-12T14:44:42.816Z,56.42
2023-11-12T14:47:14.661Z,56.43
2023-11-12T14:49:47.389Z,56.54
2023-11-12T14:52:20.283Z,56.33
2023-11-12T14:54:50.810Z,56.27
2023-11-12T14:57:21.388Z,56.19
2023-11-12T14:59:51.780Z,56.46
2023-11-12T15:02:22.251Z,56.46
2023-11-12T15:04:52.654Z,56.29
2023-11-12T15:07:25.682Z,56.33
2023-11-12T15:09:56.266Z,55.94
2023-11-12T15:12:27.302Z,55.93
2023-11-12T15:14:57.360Z,56.05
2023-11-12T15:17:28.869Z,56.12
2023-11-12T15:20:00.349Z,55.98
2023-11-12T15:22:33.713Z,56.53
2023-11-12T15:25:04.456Z,56.06
2023-11-12T15:27:34.852Z,56.39
2023-11-12T15:30:05.245Z,56.62
2023-11-12T15:32:35.729Z,56.72
2023-11-12T15:35:06.628Z,56.74
2023-11-12T15:37:41.948Z,56.68
2023-11-12T15:40:20.063Z,56.76
2023-11-12T15:42:53.125Z,56.63
2023-11-12T15:45:25.503Z,56.58
2023-11-12T15:47:56.729Z,56.50
2023-11-12T15:50:31.673Z,56.45
2023-11-12T15:53:04.905Z,56.44
2023-11-12T15:55:35.554Z,56.44
2023-11-12T15:58:07.047Z,56.15
2023-11-12T16:00:38.385Z,56.30
2023-11-12T16:03:18.180Z,56.32
2023-11-12T16:05:49.730Z,56.22
2023-11-12T16:08:25.133Z,56.37
2023-11-12T16:10:55.540Z,55.64
2023-11-12T16:13:26.371Z,55.84
2023-11-12T16:15:56.784Z,55.76
2023-11-12T16:18:27.569Z,55.67
2023-11-12T16:20:58.055Z,55.72
2023-11-12T16:23:31.113Z,55.83
2023-11-12T16:26:02.673Z,51.66
2023-11-12T16:28:33.686Z,53.29
2023-11-12T16:31:07.797Z,54.50
2023-11-12T16:33:39.593Z,54.93
2023-11-12T16:36:11.184Z,55.20
2023-11-12T16:38:44.442Z,55.36
2023-11-12T16:41:15.359Z,55.50
2023-11-12T16:43:46.500Z,55.77
2023-11-12T16:46:17.158Z,55.69
2023-11-12T16:48:48.125Z,55.74
2023-11-12T16:51:19.476Z,55.93
2023-11-12T16:53:52.994Z,55.82
2023-11-12T16:56:23.835Z,56.01
2023-11-12T16:58:57.869Z,56.04
2023-11-12T17:01:29.723Z,55.84
2023-11-12T17:04:01.186Z,55.92
2023-11-12T17:06:34.260Z,55.90
2023-11-12T17:09:10.644Z,55.87
2023-11-12T17:11:41.078Z,55.63
2023-11-12T17:14:12.482Z,55.61
2023-11-12T17:16:47.290Z,55.63
2023-11-12T17:19:18.612Z,55.22
2023-11-12T17:21:51.955Z,54.96
2023-11-12T17:24:25.291Z,54.99
2023-11-12T17:26:57.019Z,55.19
2023-11-12T17:29:28.475Z,55.21
2023-11-12T17:31:59.028Z,55.02
2023-11-12T17:34:29.730Z,55.10
2023-11-12T17:37:01.426Z,54.94
2023-11-12T17:39:34.682Z,55.00
2023-11-12T17:42:05.482Z,55.15
2023-11-12T17:44:36.481Z,54.97
2023-11-12T17:47:07.252Z,55.32
2023-11-12T17:49:38.009Z,55.25
2023-11-12T17:52:09.318Z,55.39
2023-11-12T17:54:43.301Z,55.47
2023-11-12T17:57:15.808Z,55.67
2023-11-12T17:59:46.683Z,55.46
2023-11-12T18:02:17.398Z,55.50
2023-11-12T18:04:48.093Z,55.54
2023-11-12T18:07:18.945Z,55.53
2023-11-12T18:09:52.474Z,55.59
2023-11-12T18:12:24.482Z,55.61
2023-11-12T18:14:56.795Z,55.69
2023-11-12T18:17:27.822Z,55.58
2023-11-12T18:19:58.921Z,55.44
2023-11-12T18:22:32.292Z,54.49
2023-11-12T18:25:06.206Z,54.75
2023-11-12T18:27:37.555Z,55.03
2023-11-12T18:30:10.536Z,55.07
2023-11-12T18:32:41.886Z,55.25
2023-11-12T18:35:16.107Z,55.01
2023-11-12T18:37:51.707Z,55.28
2023-11-12T18:40:25.467Z,55.47
2023-11-12T18:42:57.926Z,55.14
2023-11-12T18:45:30.846Z,54.80
2023-11-12T18:48:03.980Z,54.38
2023-11-12T18:50:35.657Z,54.23
2023-11-12T18:53:07.341Z,54.23
2023-11-12T18:55:42.523Z,54.28
2023-11-12T18:58:15.521Z,54.55
2023-11-12T19:00:46.255Z,54.72
2023-11-12T19:03:16.938Z,54.67
2023-11-12T19:05:47.916Z,54.51
2023-11-12T19:08:19.268Z,54.65
2023-11-12T19:10:52.561Z,54.71
2023-11-12T19:13:28.407Z,54.76
2023-11-12T19:16:00.612Z,55.46
2023-11-12T19:18:32.726Z,55.30
2023-11-12T19:21:04.821Z,54.88
2023-11-12T19:23:40.861Z,54.60
2023-11-12T19:26:14.454Z,54.82
2023-11-12T19:28:46.881Z,54.76
2023-11-12T19:31:30.357Z,54.73
2023-11-12T19:34:06.089Z,54.90
2023-11-12T19:36:38.406Z,54.83
2023-11-12T19:39:14.674Z,54.82
2023-11-12T19:41:49.314Z,55.04
2023-11-12T19:44:21.791Z,55.11
2023-11-12T19:46:53.546Z,55.24
2023-11-12T19:49:25.903Z,55.07
2023-11-12T19:52:01.878Z,55.20
2023-11-12T19:54:36.440Z,54.88
2023-11-12T19:57:13.180Z,54.63
2023-11-12T19:59:49.603Z,54.47
2023-11-12T20:02:24.422Z,54.54
2023-11-12T20:04:59.087Z,54.66
2023-11-12T20:07:32.113Z,54.55
2023-11-12T20:10:06.618Z,54.41
2023-11-12T20:12:45.614Z,54.33
2023-11-12T20:15:20.230Z,54.28
2023-11-12T20:17:54.116Z,54.06
2023-11-12T20:20:28.628Z,54.14
2023-11-12T20:23:24.246Z,53.59
2023-11-12T20:25:56.683Z,53.33
2023-11-12T20:28:36.802Z,53.71
2023-11-12T20:31:14.254Z,53.90
2023-11-12T20:33:50.083Z,54.21
2023-11-12T20:36:22.154Z,54.23
2023-11-12T20:38:54.511Z,54.48
2023-11-12T20:41:28.202Z,54.20
2023-11-12T20:44:04.477Z,54.17
2023-11-12T20:46:38.242Z,54.09
2023-11-12T20:49:14.731Z,53.94
2023-11-12T20:51:49.586Z,54.04
2023-11-12T20:54:23.693Z,54.16
2023-11-12T20:56:55.421Z,54.02
2023-11-12T20:59:29.926Z,53.90
2023-11-12T21:02:10.040Z,54.00
2023-11-12T21:04:55.608Z,53.96
2023-11-12T21:07:27.338Z,53.94
2023-11-12T21:10:02.573Z,53.93
2023-11-12T21:12:34.321Z,53.91
2023-11-12T21:15:11.263Z,53.99
2023-11-12T21:17:47.199Z,54.19
2023-11-12T21:20:20.740Z,54.27
2023-11-12T21:22:52.529Z,54.36
2023-11-12T21:25:26.872Z,54.49
2023-11-12T21:27:59.817Z,54.47
2023-11-12T21:30:35.571Z,54.61
2023-11-12T21:33:07.386Z,54.28
2023-11-12T21:35:43.998Z,54.39
2023-11-12T21:38:18.068Z,54.31
2023-11-12T21:40:50.208Z,54.44
2023-11-12T21:43:24.689Z,54.39
2023-11-12T21:46:00.639Z,54.46
2023-11-12T21:48:32.634Z,54.51
2023-11-12T21:51:04.636Z,53.86
2023-11-12T21:53:39.499Z,53.96
2023-11-12T21:56:16.190Z,54.04
2023-11-12T21:58:48.078Z,54.13
2023-11-12T22:01:23.705Z,54.44
2023-11-12T22:04:02.890Z,54.67
2023-11-12T22:06:35.276Z,54.82
2023-11-12T22:09:17.401Z,55.05
2023-11-12T22:11:55.017Z,55.16
2023-11-12T22:14:27.828Z,55.28
2023-11-12T22:17:05.639Z,55.55
2023-11-12T22:19:39.998Z,55.60
2023-11-12T22:22:12.591Z,55.64
2023-11-12T22:24:45.234Z,55.56
2023-11-12T22:27:17.220Z,55.77
2023-11-12T22:29:49.332Z,55.92
2023-11-12T22:32:23.759Z,56.17
2023-11-12T22:34:58.374Z,56.27
2023-11-12T22:37:32.191Z,56.36
2023-11-12T22:40:05.085Z,56.38
2023-11-12T22:42:37.967Z,56.43
2023-11-12T22:45:13.088Z,56.67
2023-11-12T22:47:48.662Z,56.76
2023-11-12T22:50:24.761Z,56.62
2023-11-12T22:52:55.782Z,56.97
2023-11-12T22:55:28.817Z,56.96
2023-11-12T22:58:02.340Z,56.96
2023-11-12T23:00:47.432Z,56.98
2023-11-12T23:03:22.831Z,57.19
2023-11-12T23:05:54.413Z,57.03
2023-11-12T23:08:25.809Z,57.28
2023-11-12T23:10:59.436Z,57.54
2023-11-12T23:13:30.895Z,57.70
2023-11-12T23:16:02.887Z,57.96
2023-11-12T23:18:36.733Z,58.10
2023-11-12T23:21:09.843Z,58.13
2023-11-12T23:23:41.157Z,57.82
2023-11-12T23:26:11.681Z,58.14
2023-11-12T23:28:42.496Z,58.23
2023-11-12T23:31:13.954Z,58.13
2023-11-12T23:33:47.656Z,58.32
2023-11-12T23:36:18.398Z,58.32
2023-11-12T23:38:49.213Z,58.38
2023-11-12T23:41:19.814Z,58.36
2023-11-12T23:43:50.454Z,58.56
2023-11-12T23:46:21.165Z,58.54
2023-11-12T23:48:54.504Z,58.52
2023-11-12T23:51:25.235Z,58.66
2023-11-12T23:53:56.006Z,58.58
2023-11-12T23:56:27.348Z,58.73
2023-11-12T23:58:58.770Z,58.69
